Time;durP1;ratioP1;P1;durP2;ratioP2;P2;SDS_P1;SDS_P2;PMS_P1;PMS_P2;Temp;Humidity;BMP_temperature;BMP_pressure;BME280_temperature;BME280_humidity;BME280_pressure;Samples;Min_cycle;Max_cycle;Signal;HPM_P1;HPM_P2
2021/11/15 00:01:41;;;;;;;19.67;14.40;;;9.30;99.90;;;;;;6222616;23;20189;-84
2021/11/15 00:04:08;;;;;;;20.55;12.73;;;9.30;99.90;;;;;;6221820;23;20221;-84
2021/11/15 00:06:35;;;;;;;15.05;12.35;;;9.30;99.90;;;;;;6222249;23;20194;-84
2021/11/15 00:09:02;;;;;;;16.88;12.45;;;9.30;99.90;;;;;;6223064;23;20178;-84
2021/11/15 00:11:30;;;;;;;19.48;14.73;;;9.40;99.90;;;;;;6222333;23;20182;-83
2021/11/15 00:13:57;;;;;;;15.65;12.50;;;9.40;99.90;;;;;;6221769;23;20554;-84
2021/11/15 00:16:25;;;;;;;18.58;13.50;;;9.40;99.90;;;;;;6222668;23;20212;-85
2021/11/15 00:18:52;;;;;;;19.95;12.57;;;9.40;99.90;;;;;;6222083;23;20265;-84
2021/11/15 00:21:19;;;;;;;20.83;14.15;;;9.40;99.90;;;;;;6222126;23;20178;-84
2021/11/15 00:23:45;;;;;;;17.17;13.48;;;9.20;99.90;;;;;;6221770;23;20184;-85
2021/11/15 00:26:12;;;;;;;15.93;12.68;;;9.30;99.90;;;;;;6222237;23;20208;-84
2021/11/15 00:28:39;;;;;;;15.52;12.68;;;9.30;99.90;;;;;;6222688;23;20184;-84
2021/11/15 00:31:06;;;;;;;21.30;13.07;;;9.20;99.90;;;;;;6221837;23;20538;-84
2021/11/15 00:33:34;;;;;;;18.00;14.05;;;9.20;99.90;;;;;;6221840;23;20183;-84
2021/11/15 00:36:01;;;;;;;16.40;13.85;;;9.20;99.90;;;;;;6221503;23;20207;-84
2021/11/15 00:38:28;;;;;;;18.55;13.43;;;9.20;99.90;;;;;;6222023;23;20182;-84
2021/11/15 00:40:54;;;;;;;15.10;12.45;;;9.30;99.90;;;;;;6222126;23;20182;-84
2021/11/15 00:43:21;;;;;;;16.63;13.27;;;9.30;99.90;;;;;;6221253;23;20182;-85
2021/11/15 00:45:48;;;;;;;18.27;13.00;;;9.20;99.90;;;;;;6221819;23;20178;-85
2021/11/15 00:48:15;;;;;;;14.73;12.73;;;9.20;99.90;;;;;;6221889;23;20178;-83
2021/11/15 00:50:43;;;;;;;16.65;13.23;;;9.20;99.90;;;;;;6221832;23;20179;-84
2021/11/15 00:53:10;;;;;;;15.63;11.57;;;9.30;99.90;;;;;;6221378;23;20184;-84
2021/11/15 00:55:37;;;;;;;18.52;14.02;;;9.30;99.90;;;;;;6221051;23;20216;-85
2021/11/15 00:58:05;;;;;;;17.85;13.15;;;9.30;99.90;;;;;;6221618;23;20178;-83
2021/11/15 01:00:33;;;;;;;16.48;12.85;;;9.30;99.90;;;;;;6222859;23;20177;-82
2021/11/15 01:03:00;;;;;;;19.80;14.40;;;9.30;99.90;;;;;;6242036;23;20171;-82
2021/11/15 01:05:28;;;;;;;17.48;12.77;;;9.20;99.90;;;;;;6241264;23;20170;-83
2021/11/15 01:07:56;;;;;;;16.13;12.15;;;9.20;99.90;;;;;;6224386;23;20201;-84
2021/11/15 01:10:23;;;;;;;16.98;11.45;;;9.20;99.90;;;;;;6223635;23;20178;-84
2021/11/15 01:12:50;;;;;;;14.82;12.38;;;9.20;99.90;;;;;;6222066;23;20183;-84
2021/11/15 01:15:20;;;;;;;15.43;12.38;;;9.20;99.90;;;;;;6222700;23;20194;-84
2021/11/15 01:17:48;;;;;;;15.75;13.10;;;9.10;99.90;;;;;;6221958;23;20197;-84
2021/11/15 01:20:17;;;;;;;18.42;13.80;;;9.10;99.90;;;;;;6223062;23;20184;-83
2021/11/15 01:22:44;;;;;;;14.65;13.13;;;9.20;99.90;;;;;;6221503;23;20205;-82
2021/11/15 01:25:12;;;;;;;17.08;11.65;;;9.20;99.90;;;;;;6228271;23;20221;-82
2021/11/15 01:27:40;;;;;;;19.17;13.52;;;9.20;99.90;;;;;;6241695;23;20205;-82
2021/11/15 01:30:10;;;;;;;15.70;13.00;;;9.00;99.90;;;;;;6242635;23;20180;-82
2021/11/15 01:32:37;;;;;;;15.05;10.68;;;9.00;99.90;;;;;;6243906;23;20157;-82
2021/11/15 01:35:05;;;;;;;15.95;11.65;;;9.00;99.90;;;;;;6242575;23;20192;-83
2021/11/15 01:37:32;;;;;;;16.83;11.55;;;9.00;99.90;;;;;;6224279;23;20197;-84
2021/11/15 01:39:59;;;;;;;17.52;12.43;;;8.90;99.90;;;;;;6224169;23;20210;-84
2021/11/15 01:42:28;;;;;;;18.45;12.95;;;9.00;99.90;;;;;;6223509;23;20177;-84
2021/11/15 01:44:55;;;;;;;18.40;12.50;;;9.00;99.90;;;;;;6224195;23;20630;-83
2021/11/15 01:47:22;;;;;;;15.10;11.80;;;9.00;99.90;;;;;;6223433;23;20685;-84
2021/11/15 01:49:49;;;;;;;13.10;10.55;;;9.10;99.90;;;;;;6223675;23;20206;-83
2021/11/15 01:52:16;;;;;;;16.77;10.43;;;9.00;99.90;;;;;;6223412;23;20183;-84
2021/11/15 01:54:43;;;;;;;14.65;10.65;;;9.00;99.90;;;;;;6223510;23;20189;-83
2021/11/15 01:57:12;;;;;;;13.68;10.60;;;9.10;99.90;;;;;;6223441;23;20202;-83
2021/11/15 01:59:40;;;;;;;13.65;10.05;;;9.00;99.90;;;;;;6223299;23;20480;-84
2021/11/15 02:02:07;;;;;;;16.88;10.93;;;9.10;99.90;;;;;;6223146;23;20185;-83
2021/11/15 02:04:34;;;;;;;14.43;10.48;;;9.10;99.90;;;;;;6223597;23;20186;-84
2021/11/15 02:07:00;;;;;;;13.80;10.65;;;9.20;99.90;;;;;;6223194;23;20198;-84
2021/11/15 02:09:29;;;;;;;11.98;9.45;;;9.10;99.90;;;;;;6223857;23;20184;-83
2021/11/15 02:11:56;;;;;;;15.45;11.02;;;9.10;99.90;;;;;;6223075;23;20180;-84
2021/11/15 02:14:23;;;;;;;13.25;9.73;;;9.10;99.90;;;;;;6223507;23;20187;-84
2021/11/15 02:16:51;;;;;;;11.95;9.38;;;9.00;99.90;;;;;;6223298;23;20212;-83
2021/11/15 02:19:18;;;;;;;15.05;9.40;;;9.10;99.90;;;;;;6223130;23;20184;-84
2021/11/15 02:21:46;;;;;;;13.40;9.32;;;9.10;99.90;;;;;;6223461;23;20188;-84
2021/11/15 02:24:13;;;;;;;15.63;9.90;;;9.10;99.90;;;;;;6223145;23;20188;-84
2021/11/15 02:26:40;;;;;;;11.65;8.85;;;9.00;99.90;;;;;;6223729;23;20277;-83
2021/11/15 02:29:07;;;;;;;10.02;9.00;;;9.10;99.90;;;;;;6223827;23;20753;-84
2021/11/15 02:31:33;;;;;;;8.70;7.85;;;9.10;99.90;;;;;;6222998;23;20190;-84
2021/11/15 02:34:01;;;;;;;11.75;7.90;;;9.00;99.90;;;;;;6222998;23;20637;-82
2021/11/15 02:36:29;;;;;;;10.60;8.68;;;9.00;99.90;;;;;;6223328;23;20728;-83
2021/11/15 02:38:58;;;;;;;10.35;8.55;;;9.00;99.90;;;;;;6225425;23;20183;-84
2021/11/15 02:41:26;;;;;;;16.38;10.20;;;8.90;99.90;;;;;;6224248;23;20185;-84
2021/11/15 02:43:53;;;;;;;12.13;7.88;;;8.90;99.90;;;;;;6224505;23;20178;-83
2021/11/15 02:46:19;;;;;;;7.95;7.15;;;8.90;99.90;;;;;;6224612;23;20198;-84
2021/11/15 02:48:47;;;;;;;9.43;7.93;;;8.90;99.90;;;;;;6225588;23;20273;-83
2021/11/15 02:51:14;;;;;;;9.75;7.13;;;8.90;99.90;;;;;;6226030;23;20178;-84
2021/11/15 02:53:41;;;;;;;10.80;7.05;;;8.90;99.90;;;;;;6224384;23;20202;-83
2021/11/15 02:56:09;;;;;;;8.40;7.20;;;8.90;99.90;;;;;;6225547;23;20213;-84
2021/11/15 02:58:36;;;;;;;10.90;7.10;;;8.90;99.90;;;;;;6224243;23;20182;-83
2021/11/15 03:01:06;;;;;;;7.68;6.22;;;8.90;99.90;;;;;;6224770;23;20179;-84
2021/11/15 03:03:32;;;;;;;8.73;6.32;;;8.90;99.90;;;;;;6224801;23;20184;-84
2021/11/15 03:06:00;;;;;;;13.20;8.73;;;8.80;99.90;;;;;;6225842;23;20253;-84
2021/11/15 03:08:27;;;;;;;8.82;7.90;;;8.70;99.90;;;;;;6225210;23;20235;-84
2021/11/15 03:10:58;;;;;;;7.35;6.60;;;8.70;99.90;;;;;;6224126;23;20182;-83
2021/11/15 03:13:28;;;;;;;8.88;6.93;;;8.60;99.90;;;;;;6224539;23;20169;-83
2021/11/15 03:15:56;;;;;;;8.48;7.57;;;8.70;99.90;;;;;;6224392;23;20618;-84
2021/11/15 03:18:24;;;;;;;9.80;6.75;;;8.60;99.90;;;;;;6224697;23;20253;-83
2021/11/15 03:20:53;;;;;;;10.38;7.47;;;8.60;99.90;;;;;;6225385;23;20180;-83
2021/11/15 03:23:23;;;;;;;10.38;7.63;;;8.60;99.90;;;;;;6224601;23;20262;-82
2021/11/15 03:25:51;;;;;;;12.05;9.43;;;8.60;99.90;;;;;;6223995;23;20258;-83
2021/11/15 03:28:20;;;;;;;9.25;7.18;;;8.70;99.90;;;;;;6224381;23;20188;-83
2021/11/15 03:30:51;;;;;;;9.75;8.75;;;8.60;99.90;;;;;;6223445;23;20189;-83
2021/11/15 03:33:18;;;;;;;9.10;7.40;;;8.60;99.90;;;;;;6224198;23;20168;-83
2021/11/15 03:35:45;;;;;;;9.20;7.72;;;8.70;99.90;;;;;;6223909;23;20184;-83
2021/11/15 03:38:12;;;;;;;10.65;8.32;;;8.70;99.90;;;;;;6224014;23;20190;-83
2021/11/15 03:40:39;;;;;;;11.48;8.48;;;8.60;99.90;;;;;;6223728;23;20188;-83
2021/11/15 03:43:07;;;;;;;9.05;7.53;;;8.60;99.90;;;;;;6223856;23;20178;-83
2021/11/15 03:45:36;;;;;;;16.60;9.68;;;8.60;99.90;;;;;;6224781;23;20192;-83
2021/11/15 03:48:06;;;;;;;11.13;7.88;;;8.60;99.90;;;;;;6223792;23;20181;-84
2021/11/15 03:50:33;;;;;;;10.38;8.23;;;8.60;99.90;;;;;;6223277;23;20638;-82
2021/11/15 03:53:01;;;;;;;10.43;9.38;;;8.60;99.90;;;;;;6223843;23;20237;-84
2021/11/15 03:55:28;;;;;;;9.50;7.97;;;8.60;99.90;;;;;;6223436;23;20260;-83
2021/11/15 03:57:55;;;;;;;11.38;9.40;;;8.60;99.90;;;;;;6223906;23;20202;-84
2021/11/15 04:00:23;;;;;;;10.02;8.90;;;8.60;99.90;;;;;;6223179;23;20178;-84
2021/11/15 04:02:54;;;;;;;11.27;8.45;;;8.60;99.90;;;;;;6222687;23;20233;-83
2021/11/15 04:05:29;;;;;;;13.88;8.40;;;8.50;99.90;;;;;;6225054;23;20185;-84
2021/11/15 04:07:56;;;;;;;10.20;8.90;;;8.40;99.90;;;;;;6224204;23;20253;-83
2021/11/15 04:10:26;;;;;;;10.63;8.05;;;8.50;99.90;;;;;;6224267;23;20189;-83
2021/11/15 04:12:55;;;;;;;11.55;9.00;;;8.50;99.90;;;;;;6223995;23;20181;-84
2021/11/15 04:15:23;;;;;;;9.32;7.72;;;8.50;99.90;;;;;;6224718;23;20642;-83
2021/11/15 04:17:50;;;;;;;13.73;10.50;;;8.60;99.90;;;;;;6224720;23;20213;-83
2021/11/15 04:20:19;;;;;;;11.48;9.27;;;8.50;99.90;;;;;;6225192;23;20170;-83
2021/11/15 04:22:48;;;;;;;10.07;8.43;;;8.60;99.90;;;;;;6225390;23;20182;-83
2021/11/15 04:25:15;;;;;;;9.68;8.43;;;8.50;99.90;;;;;;6225190;23;20278;-83
2021/11/15 04:27:42;;;;;;;19.17;10.43;;;8.50;99.90;;;;;;6224492;23;20258;-83
2021/11/15 04:30:12;;;;;;;12.02;10.82;;;8.50;99.90;;;;;;6224560;23;20200;-83
2021/11/15 04:32:39;;;;;;;11.20;9.40;;;8.60;99.90;;;;;;6223768;23;20240;-83
2021/11/15 04:35:08;;;;;;;13.30;10.60;;;8.60;99.90;;;;;;6224776;23;20173;-84
2021/11/15 04:37:35;;;;;;;12.10;9.30;;;8.60;99.90;;;;;;6223266;23;20202;-83
2021/11/15 04:40:04;;;;;;;15.20;9.32;;;8.60;99.90;;;;;;6223582;23;20181;-83
2021/11/15 04:42:31;;;;;;;12.30;7.60;;;8.70;99.90;;;;;;6223411;23;20491;-84
2021/11/15 04:44:57;;;;;;;14.75;10.82;;;8.60;99.90;;;;;;6224863;23;20182;-83
2021/11/15 04:47:24;;;;;;;14.25;11.70;;;8.60;99.90;;;;;;6224297;23;20233;-83
2021/11/15 04:49:51;;;;;;;12.80;9.52;;;8.30;99.90;;;;;;6224723;23;20220;-83
2021/11/15 04:52:18;;;;;;;11.63;9.15;;;8.30;99.90;;;;;;6223262;23;20621;-85
2021/11/15 04:54:45;;;;;;;10.95;8.73;;;8.50;99.90;;;;;;6224547;23;20178;-85
2021/11/15 04:57:13;;;;;;;10.27;8.63;;;8.50;99.90;;;;;;6237515;23;20246;-86
2021/11/15 04:59:40;;;;;;;10.85;9.15;;;8.50;99.90;;;;;;6243135;23;20229;-84
2021/11/15 05:02:07;;;;;;;12.50;9.80;;;8.50;99.90;;;;;;6232060;23;20177;-84
2021/11/15 05:04:34;;;;;;;13.52;9.68;;;8.50;99.90;;;;;;6225458;23;20569;-84
2021/11/15 05:07:01;;;;;;;14.82;9.40;;;8.50;99.90;;;;;;6224322;23;20692;-83
2021/11/15 05:09:27;;;;;;;14.13;10.52;;;8.50;99.90;;;;;;6224862;23;20197;-86
2021/11/15 05:11:54;;;;;;;15.75;10.32;;;8.50;99.90;;;;;;6224564;23;20183;-84
2021/11/15 05:14:22;;;;;;;13.45;10.45;;;8.60;99.90;;;;;;6225217;23;20241;-83
2021/11/15 05:16:49;;;;;;;12.88;9.95;;;8.60;99.90;;;;;;6224576;23;20573;-85
2021/11/15 05:19:16;;;;;;;17.60;10.48;;;8.50;99.90;;;;;;6226126;23;20213;-84
2021/11/15 05:21:43;;;;;;;14.88;9.45;;;8.50;99.90;;;;;;6224639;23;20181;-83
2021/11/15 05:24:10;;;;;;;12.70;9.32;;;8.40;99.90;;;;;;6224429;23;20272;-82
2021/11/15 05:26:37;;;;;;;15.55;10.32;;;8.40;99.90;;;;;;6224952;23;20201;-84
2021/11/15 05:29:04;;;;;;;13.15;10.70;;;8.40;99.90;;;;;;6224654;23;20701;-83
2021/11/15 05:31:34;;;;;;;15.02;10.60;;;8.40;99.90;;;;;;6223583;23;20302;-83
2021/11/15 05:34:02;;;;;;;12.93;11.57;;;8.40;99.90;;;;;;6229941;23;20167;-81
2021/11/15 05:36:29;;;;;;;14.93;11.95;;;8.50;99.90;;;;;;6233851;23;20220;-82
2021/11/15 05:38:55;;;;;;;14.40;11.55;;;8.50;99.90;;;;;;6225538;23;20659;-85
2021/11/15 05:41:22;;;;;;;14.07;11.48;;;8.50;99.90;;;;;;6224860;23;20263;-85
2021/11/15 05:43:49;;;;;;;13.93;12.23;;;8.50;99.90;;;;;;6224025;23;20182;-84
2021/11/15 05:46:16;;;;;;;15.77;11.20;;;8.50;99.90;;;;;;6223563;23;20205;-86
2021/11/15 05:48:44;;;;;;;15.07;12.10;;;8.50;99.90;;;;;;6223798;23;20182;-85
2021/11/15 05:51:11;;;;;;;14.32;11.65;;;8.60;99.90;;;;;;6224236;23;20178;-86
2021/11/15 05:53:41;;;;;;;13.52;12.10;;;8.50;99.90;;;;;;6224058;23;20178;-85
2021/11/15 05:56:08;;;;;;;15.13;10.95;;;8.50;99.90;;;;;;6223443;23;20209;-83
2021/11/15 05:58:35;;;;;;;11.50;9.52;;;8.40;99.90;;;;;;6223320;23;20205;-83
2021/11/15 06:01:03;;;;;;;12.85;9.98;;;8.50;99.90;;;;;;6222408;23;20181;-85
2021/11/15 06:03:30;;;;;;;13.13;11.43;;;8.40;99.90;;;;;;6223704;23;20265;-86
2021/11/15 06:05:58;;;;;;;12.38;10.57;;;8.40;99.90;;;;;;6222875;23;20238;-85
2021/11/15 06:08:25;;;;;;;15.15;9.95;;;8.40;99.90;;;;;;6223327;23;20175;-86
2021/11/15 06:10:53;;;;;;;14.48;10.95;;;8.50;99.90;;;;;;6223688;23;20181;-85
2021/11/15 06:13:20;;;;;;;12.35;11.00;;;8.50;99.90;;;;;;6222693;23;20182;-85
2021/11/15 06:15:47;;;;;;;15.35;10.48;;;8.50;99.90;;;;;;6223111;23;20204;-86
2021/11/15 06:18:14;;;;;;;12.00;9.73;;;8.40;99.90;;;;;;6223306;23;20197;-85
2021/11/15 06:20:41;;;;;;;14.40;9.70;;;8.40;99.90;;;;;;6223484;23;20503;-84
2021/11/15 06:23:10;;;;;;;14.30;10.25;;;8.40;99.90;;;;;;6222608;23;20496;-85
2021/11/15 06:25:37;;;;;;;15.25;10.88;;;8.50;99.90;;;;;;6223360;23;20268;-84
2021/11/15 06:28:05;;;;;;;15.85;11.85;;;8.50;99.90;;;;;;6223578;23;20656;-85
2021/11/15 06:30:32;;;;;;;12.05;10.80;;;8.50;99.90;;;;;;6224175;23;20196;-85
2021/11/15 06:32:59;;;;;;;13.45;10.48;;;8.50;99.90;;;;;;6224682;23;20514;-85
2021/11/15 06:35:27;;;;;;;13.63;10.70;;;8.50;99.90;;;;;;6224653;23;20284;-85
2021/11/15 06:37:54;;;;;;;11.35;10.07;;;8.50;99.90;;;;;;6226761;23;20210;-86
2021/11/15 06:40:23;;;;;;;17.08;12.48;;;8.50;99.90;;;;;;6225373;23;20626;-85
2021/11/15 06:42:50;;;;;;;13.30;10.43;;;8.40;99.90;;;;;;6226305;23;20192;-86
2021/11/15 06:45:18;;;;;;;10.63;9.63;;;8.50;99.90;;;;;;6226509;23;20182;-85
2021/11/15 06:47:46;;;;;;;15.10;10.52;;;8.50;99.90;;;;;;6226630;23;20257;-85
2021/11/15 06:50:16;;;;;;;15.65;11.20;;;8.40;99.90;;;;;;6225984;23;20209;-85
2021/11/15 06:52:44;;;;;;;14.90;8.80;;;8.50;99.90;;;;;;6225957;23;20166;-85
2021/11/15 06:55:12;;;;;;;14.23;9.93;;;8.40;99.90;;;;;;6226305;23;20186;-85
2021/11/15 06:57:40;;;;;;;13.43;10.20;;;8.40;99.90;;;;;;6227063;23;20533;-86
2021/11/15 07:00:10;;;;;;;17.40;10.98;;;8.50;99.90;;;;;;6227113;23;20264;-87
2021/11/15 07:02:37;;;;;;;14.27;11.13;;;8.50;99.90;;;;;;6226222;23;20515;-85
2021/11/15 07:05:05;;;;;;;13.93;10.82;;;8.50;99.90;;;;;;6226105;23;20177;-86
2021/11/15 07:07:31;;;;;;;15.23;12.27;;;8.50;99.90;;;;;;6224024;23;20193;-83
2021/11/15 07:09:58;;;;;;;14.52;12.25;;;8.40;99.90;;;;;;6224915;23;20184;-85
2021/11/15 07:12:26;;;;;;;12.55;11.15;;;8.40;99.90;;;;;;6224524;23;20178;-84
2021/11/15 07:14:54;;;;;;;15.60;10.57;;;8.30;99.90;;;;;;6225205;23;20184;-84
2021/11/15 07:17:21;;;;;;;12.48;9.93;;;8.30;99.90;;;;;;6224145;23;20198;-84
2021/11/15 07:19:48;;;;;;;12.95;10.88;;;8.40;99.90;;;;;;6225373;23;20184;-83
2021/11/15 07:22:15;;;;;;;14.93;11.18;;;8.30;99.90;;;;;;6224661;23;20181;-83
2021/11/15 07:24:41;;;;;;;13.75;11.85;;;8.40;99.90;;;;;;6224864;23;20181;-81
2021/11/15 07:27:08;;;;;;;14.98;10.52;;;8.40;99.90;;;;;;6226595;23;20278;-83
2021/11/15 07:29:35;;;;;;;12.77;9.80;;;8.50;99.90;;;;;;6223920;23;20188;-83
2021/11/15 07:32:09;;;;;;;14.48;10.60;;;8.50;99.90;;;;;;6226650;23;20170;-84
2021/11/15 07:34:35;;;;;;;11.90;9.45;;;8.60;99.90;;;;;;6225465;23;20166;-82
2021/11/15 07:37:02;;;;;;;16.10;11.50;;;8.60;99.90;;;;;;6226795;23;20285;-83
2021/11/15 07:39:29;;;;;;;20.90;12.43;;;8.70;99.90;;;;;;6227993;23;20188;-84
2021/11/15 07:41:56;;;;;;;15.07;13.18;;;8.70;99.90;;;;;;6227363;23;20257;-83
2021/11/15 07:44:24;;;;;;;15.52;11.48;;;8.60;99.90;;;;;;6228583;23;20238;-84
2021/11/15 07:46:51;;;;;;;14.70;10.77;;;8.60;99.90;;;;;;6228834;23;20202;-83
2021/11/15 07:49:19;;;;;;;14.15;11.55;;;8.70;99.90;;;;;;6228708;23;20173;-84
2021/11/15 07:51:45;;;;;;;11.65;10.15;;;8.70;99.90;;;;;;6228614;23;20513;-83
2021/11/15 07:54:12;;;;;;;12.80;9.90;;;8.80;99.90;;;;;;6227557;23;20242;-84
2021/11/15 07:56:39;;;;;;;17.20;11.30;;;8.80;99.90;;;;;;6227404;23;20284;-84
2021/11/15 07:59:06;;;;;;;16.90;11.60;;;8.80;99.90;;;;;;6224704;23;20194;-84
2021/11/15 08:01:34;;;;;;;14.52;12.48;;;8.80;99.90;;;;;;6224684;23;20288;-84
2021/11/15 08:04:00;;;;;;;13.55;10.20;;;8.80;99.90;;;;;;6226310;23;20234;-84
2021/11/15 08:06:29;;;;;;;12.95;10.93;;;8.80;99.90;;;;;;6228052;23;20206;-84
2021/11/15 08:08:55;;;;;;;10.88;9.43;;;8.70;99.90;;;;;;6227747;23;20184;-83
2021/11/15 08:11:24;;;;;;;12.10;10.30;;;8.70;99.90;;;;;;6227054;23;20693;-85
2021/11/15 08:13:51;;;;;;;14.73;9.93;;;8.70;99.90;;;;;;6226574;23;20186;-84
2021/11/15 08:16:17;;;;;;;15.50;10.50;;;8.70;99.90;;;;;;6232011;23;20225;-82
2021/11/15 08:18:44;;;;;;;14.13;11.18;;;8.80;99.90;;;;;;6240891;23;20237;-84
2021/11/15 08:21:13;;;;;;;14.65;11.98;;;8.80;99.90;;;;;;6241211;23;20241;-82
2021/11/15 08:23:42;;;;;;;11.30;10.15;;;8.90;99.90;;;;;;6240799;23;20171;-82
2021/11/15 08:26:37;;;;;;;12.68;9.85;;;8.90;99.90;;;;;;6237879;23;20251;-80
2021/11/15 08:29:07;;;;;;;12.43;10.38;;;9.00;99.90;;;;;;6221419;23;20224;-81
2021/11/15 08:31:34;;;;;;;11.25;8.65;;;9.00;99.90;;;;;;6219452;23;20190;-81
2021/11/15 08:34:01;;;;;;;13.27;10.68;;;9.10;99.90;;;;;;6216984;23;20192;-81
2021/11/15 08:40:03;;;;;;;16.42;10.38;;;9.10;99.90;;;;;;6235302;23;20229;-84
2021/11/15 08:42:33;;;;;;;11.57;9.77;;;9.10;99.90;;;;;;6234363;23;20178;-81
2021/11/15 08:45:02;;;;;;;15.15;11.57;;;9.10;99.90;;;;;;6236335;23;20215;-82
2021/11/15 08:47:32;;;;;;;15.90;10.65;;;9.20;99.90;;;;;;6231696;23;20198;-83
2021/11/15 08:50:01;;;;;;;15.05;11.25;;;9.30;99.90;;;;;;6218053;23;20195;-82
2021/11/15 08:52:29;;;;;;;12.38;8.98;;;9.20;99.90;;;;;;6209260;23;20210;-83
2021/11/15 08:54:58;;;;;;;11.55;10.00;;;9.30;99.90;;;;;;6240641;23;20202;-80
2021/11/15 08:57:27;;;;;;;11.38;10.20;;;9.40;99.90;;;;;;6236991;23;20258;-81
2021/11/15 08:59:55;;;;;;;13.27;10.10;;;9.40;99.90;;;;;;6221309;23;20210;-83
2021/11/15 09:02:22;;;;;;;13.30;10.00;;;9.40;99.90;;;;;;6221598;23;20178;-83
2021/11/15 09:04:49;;;;;;;14.45;11.63;;;9.40;99.90;;;;;;6220738;23;20183;-83
2021/11/15 09:07:16;;;;;;;12.85;10.68;;;9.40;99.90;;;;;;6220516;23;20198;-82
2021/11/15 09:09:42;;;;;;;12.10;10.20;;;9.30;99.90;;;;;;6221004;23;20178;-83
2021/11/15 09:12:11;;;;;;;21.58;12.93;;;9.30;99.90;;;;;;6219025;23;20189;-82
2021/11/15 09:14:38;;;;;;;13.65;12.35;;;9.30;99.90;;;;;;6219383;23;20544;-84
2021/11/15 09:17:20;;;;;;;19.08;13.05;;;9.10;99.90;;;;;;6238282;22;20215;-83
2021/11/15 09:19:47;;;;;;;15.27;13.63;;;9.10;99.90;;;;;;6248357;23;20237;-82
2021/11/15 09:22:14;;;;;;;18.10;14.32;;;9.00;99.90;;;;;;6251273;23;20178;-81
2021/11/15 09:24:41;;;;;;;17.67;14.50;;;9.00;99.90;;;;;;6249974;23;20539;-82
2021/11/15 09:27:12;;;;;;;19.80;14.18;;;9.00;99.90;;;;;;6250241;23;20236;-81
2021/11/15 09:29:42;;;;;;;17.98;15.27;;;8.90;99.90;;;;;;6251667;23;20185;-82
2021/11/15 09:32:09;;;;;;;15.27;13.68;;;9.00;99.90;;;;;;6251849;23;20807;-83
2021/11/15 09:34:40;;;;;;;23.52;15.27;;;8.90;99.90;;;;;;6250862;23;20187;-82
2021/11/15 09:37:06;;;;;;;18.60;14.93;;;9.00;99.90;;;;;;6252466;23;20272;-82
2021/11/15 09:39:33;;;;;;;16.42;14.38;;;8.90;99.90;;;;;;6252339;23;20201;-82
2021/11/15 09:42:01;;;;;;;16.48;13.82;;;8.80;99.90;;;;;;6251222;23;20177;-82
2021/11/15 09:44:29;;;;;;;15.50;13.82;;;8.80;99.90;;;;;;6253686;23;20645;-82
2021/11/15 09:46:57;;;;;;;18.67;13.43;;;8.80;99.90;;;;;;6255617;23;20201;-82
2021/11/15 09:49:23;;;;;;;20.10;16.05;;;8.80;99.90;;;;;;6253726;23;20644;-82
2021/11/15 09:51:50;;;;;;;19.38;16.30;;;8.80;99.90;;;;;;6251057;23;20498;-82
2021/11/15 09:54:20;;;;;;;18.38;14.27;;;8.70;99.90;;;;;;6250761;23;20640;-82
2021/11/15 09:56:48;;;;;;;18.15;14.45;;;8.70;99.90;;;;;;6252412;23;20231;-82
2021/11/15 09:59:15;;;;;;;21.38;15.05;;;8.70;99.90;;;;;;6252376;23;20198;-82
2021/11/15 10:01:45;;;;;;;20.00;15.02;;;8.70;99.90;;;;;;6252899;23;20658;-82
2021/11/15 10:04:16;;;;;;;18.17;14.93;;;8.70;99.90;;;;;;6253391;23;20181;-82
2021/11/15 10:06:43;;;;;;;16.33;14.23;;;8.70;99.90;;;;;;6251819;23;20229;-82
2021/11/15 10:09:54;;;;;;;17.45;13.90;;;8.70;99.90;;;;;;6251613;23;20173;-83
2021/11/15 10:15:24;;;;;;;15.52;13.02;;;8.70;99.90;;;;;;6251550;23;20175;-83
2021/11/15 10:17:51;;;;;;;19.85;15.30;;;8.70;99.90;;;;;;6250457;23;20213;-82
2021/11/15 10:20:21;;;;;;;19.17;14.73;;;8.70;99.90;;;;;;6250410;23;20192;-82
2021/11/15 10:22:48;;;;;;;17.98;13.88;;;8.70;99.90;;;;;;6251325;23;20232;-82
2021/11/15 10:25:22;;;;;;;21.17;15.73;;;8.80;99.90;;;;;;6253017;23;20181;-82
2021/11/15 10:28:07;;;;;;;18.55;13.48;;;8.80;99.90;;;;;;6251280;23;20202;-81
2021/11/15 10:30:36;;;;;;;19.00;14.23;;;8.70;99.90;;;;;;6251583;23;20161;-82
2021/11/15 10:33:07;;;;;;;15.80;14.20;;;8.80;99.90;;;;;;6250662;23;20187;-81
2021/11/15 10:35:42;;;;;;;21.10;15.93;;;8.80;99.90;;;;;;6251202;23;20161;-82
2021/11/15 10:38:09;;;;;;;19.15;14.05;;;8.80;99.90;;;;;;6252033;23;20192;-83
2021/11/15 10:40:37;;;;;;;17.80;12.77;;;8.80;99.90;;;;;;6250418;23;20181;-82
2021/11/15 10:43:09;;;;;;;18.55;14.30;;;8.80;99.90;;;;;;6251281;23;20181;-82
2021/11/15 10:45:38;;;;;;;19.55;14.45;;;8.70;99.90;;;;;;6251049;23;20799;-82
2021/11/15 10:48:11;;;;;;;18.02;15.02;;;8.70;99.90;;;;;;6251204;23;20208;-81
2021/11/15 10:50:45;;;;;;;19.40;14.73;;;8.70;99.90;;;;;;6249700;23;20165;-81
2021/11/15 10:53:18;;;;;;;15.63;13.50;;;8.70;99.90;;;;;;6250201;23;20173;-82
2021/11/15 10:56:04;;;;;;;19.30;14.32;;;8.70;99.90;;;;;;6250966;23;20165;-83
2021/11/15 10:58:39;;;;;;;14.80;12.55;;;8.70;99.90;;;;;;6250827;23;20182;-83
2021/11/15 11:01:05;;;;;;;31.63;14.80;;;8.70;99.90;;;;;;6250962;23;20161;-82
2021/11/15 11:03:33;;;;;;;16.08;12.10;;;8.70;99.90;;;;;;6249734;23;20185;-81
2021/11/15 11:06:08;;;;;;;17.52;14.48;;;8.70;99.90;;;;;;6249724;23;20202;-82
2021/11/15 11:08:40;;;;;;;20.77;13.13;;;8.70;99.90;;;;;;6250939;23;20554;-83
2021/11/15 11:11:11;;;;;;;14.43;12.88;;;8.70;99.90;;;;;;6251840;23;20166;-82
2021/11/15 11:13:44;;;;;;;17.60;13.43;;;8.70;99.90;;;;;;6249806;23;20624;-82
2021/11/15 11:16:11;;;;;;;15.95;12.48;;;8.70;99.90;;;;;;6248349;23;20206;-84
2021/11/15 11:18:40;;;;;;;19.50;13.77;;;8.70;99.90;;;;;;6250951;23;20525;-86
2021/11/15 11:24:15;;;;;;;19.00;13.15;;;8.80;99.90;;;;;;6246849;23;20802;-86
2021/11/15 11:28:01;;;;;;;;;;;;;;;;;;;;;
2021/11/15 11:33:31;;;;;;;14.55;10.88;;;9.00;99.90;;;;;;6204537;23;20183;-82
2021/11/15 11:35:59;;;;;;;16.42;13.68;;;9.10;99.90;;;;;;6247783;23;20283;-82
2021/11/15 11:38:28;;;;;;;21.63;12.20;;;9.10;99.90;;;;;;6247855;23;20204;-81
2021/11/15 11:40:56;;;;;;;17.45;10.98;;;9.10;99.90;;;;;;6248496;23;20200;-81
2021/11/15 11:43:23;;;;;;;13.48;12.07;;;9.10;99.90;;;;;;6248112;23;20219;-81
2021/11/15 11:45:50;;;;;;;13.77;12.25;;;9.10;99.90;;;;;;6248745;23;20177;-82
2021/11/15 11:48:18;;;;;;;13.48;10.20;;;9.10;99.90;;;;;;6248420;23;20264;-81
2021/11/15 11:50:46;;;;;;;14.63;12.35;;;9.20;99.90;;;;;;6248534;23;20184;-81
2021/11/15 11:53:13;;;;;;;16.98;12.88;;;9.20;99.90;;;;;;6248100;23;20209;-82
2021/11/15 11:55:42;;;;;;;13.98;12.10;;;9.20;99.90;;;;;;6247909;23;20173;-82
2021/11/15 11:58:26;;;;;;;14.80;12.50;;;9.20;99.90;;;;;;6247818;23;20186;-82
2021/11/15 12:00:54;;;;;;;13.75;12.38;;;9.10;99.90;;;;;;6248418;23;20183;-82
2021/11/15 12:03:23;;;;;;;15.07;11.98;;;9.10;99.90;;;;;;6247698;23;20187;-81
2021/11/15 12:05:50;;;;;;;19.15;13.40;;;9.00;99.90;;;;;;6248432;23;20208;-81
2021/11/15 12:08:17;;;;;;;18.33;13.60;;;9.00;99.90;;;;;;6248075;23;20193;-81
2021/11/15 12:10:53;;;;;;;17.20;12.40;;;9.00;99.90;;;;;;6248134;23;20181;-83
2021/11/15 12:13:22;;;;;;;18.90;13.40;;;9.00;99.90;;;;;;6248313;23;20545;-82
2021/11/15 12:15:56;;;;;;;16.98;13.50;;;8.90;99.90;;;;;;6248021;23;20513;-82
2021/11/15 12:18:25;;;;;;;17.73;14.10;;;8.90;99.90;;;;;;6248173;23;20167;-83
2021/11/15 12:21:13;;;;;;;15.70;12.77;;;9.00;99.90;;;;;;6247644;23;20204;-81
2021/11/15 12:23:43;;;;;;;18.25;13.63;;;9.00;99.90;;;;;;6248513;23;20177;-81
2021/11/15 12:26:13;;;;;;;15.93;11.65;;;9.00;99.90;;;;;;6247756;23;20247;-81
2021/11/15 12:28:43;;;;;;;17.35;14.07;;;9.10;99.90;;;;;;6248294;23;20184;-80
2021/11/15 12:31:11;;;;;;;16.83;12.52;;;9.10;99.90;;;;;;6247800;23;20185;-81
2021/11/15 12:33:38;;;;;;;18.25;13.75;;;9.10;99.90;;;;;;6248606;23;20182;-81
2021/11/15 12:36:09;;;;;;;17.80;14.00;;;9.20;99.90;;;;;;6248062;23;20197;-82
2021/11/15 12:38:43;;;;;;;15.10;11.70;;;9.20;99.90;;;;;;6248083;23;20181;-82
2021/11/15 12:41:38;;;;;;;19.13;14.35;;;9.30;99.90;;;;;;6248013;23;20164;-80
2021/11/15 12:44:23;;;;;;;15.90;11.57;;;9.40;99.90;;;;;;6238925;23;20181;-80
2021/11/15 12:47:05;;;;;;;16.50;13.68;;;9.30;99.90;;;;;;6248579;23;20203;-80
2021/11/15 12:49:40;;;;;;;15.90;12.13;;;9.30;99.90;;;;;;6256447;23;20166;-78
2021/11/15 12:52:21;;;;;;;16.27;13.45;;;9.10;99.90;;;;;;6259463;23;20614;-79
2021/11/15 12:54:50;;;;;;;18.88;14.82;;;9.20;99.90;;;;;;6250338;23;20497;-80
2021/11/15 12:57:47;;;;;;;13.95;12.15;;;9.20;99.90;;;;;;6247874;23;20201;-80
2021/11/15 13:00:22;;;;;;;16.60;13.93;;;9.20;99.90;;;;;;6195982;23;20227;-81
2021/11/15 13:02:55;;;;;;;16.80;14.10;;;9.10;99.90;;;;;;6247646;23;20165;-80